sensor_id;sensor_type;location;lat;lon;timestamp;P1;durP1;ratioP1;P2;durP2;ratioP2
74650;SDS011;63169;46.042;14.592;2023-05-06T00:00:10;6.07;;;5.47;;
74650;SDS011;63169;46.042;14.592;2023-05-06T00:02:36;6.75;;;4.70;;
74650;SDS011;63169;46.042;14.592;2023-05-06T00:05:02;5.60;;;4.85;;
74650;SDS011;63169;46.042;14.592;2023-05-06T00:07:27;5.88;;;5.10;;
74650;SDS011;63169;46.042;14.592;2023-05-06T00:09:52;8.55;;;5.45;;
74650;SDS011;63169;46.042;14.592;2023-05-06T00:12:18;6.50;;;5.82;;
74650;SDS011;63169;46.042;14.592;2023-05-06T00:14:43;5.75;;;4.93;;
74650;SDS011;63169;46.042;14.592;2023-05-06T00:17:09;6.15;;;4.78;;
74650;SDS011;63169;46.042;14.592;2023-05-06T00:19:34;6.28;;;3.28;;
74650;SDS011;63169;46.042;14.592;2023-05-06T00:21:59;6.25;;;5.32;;
74650;SDS011;63169;46.042;14.592;2023-05-06T00:24:25;6.90;;;5.05;;
74650;SDS011;63169;46.042;14.592;2023-05-06T00:26:51;6.97;;;5.25;;
74650;SDS011;63169;46.042;14.592;2023-05-06T00:29:17;7.53;;;5.90;;
74650;SDS011;63169;46.042;14.592;2023-05-06T00:31:42;7.20;;;6.30;;
74650;SDS011;63169;46.042;14.592;2023-05-06T00:34:09;8.27;;;7.47;;
74650;SDS011;63169;46.042;14.592;2023-05-06T00:36:34;6.20;;;5.20;;
74650;SDS011;63169;46.042;14.592;2023-05-06T00:39:00;5.70;;;2.90;;
74650;SDS011;63169;46.042;14.592;2023-05-06T00:41:29;6.82;;;6.15;;
74650;SDS011;63169;46.042;14.592;2023-05-06T00:43:55;6.65;;;5.45;;
74650;SDS011;63169;46.042;14.592;2023-05-06T00:46:20;8.07;;;6.25;;
74650;SDS011;63169;46.042;14.592;2023-05-06T00:48:45;6.45;;;5.50;;
74650;SDS011;63169;46.042;14.592;2023-05-06T00:51:11;7.30;;;6.38;;
74650;SDS011;63169;46.042;14.592;2023-05-06T00:53:37;5.55;;;3.03;;
74650;SDS011;63169;46.042;14.592;2023-05-06T00:56:02;7.15;;;4.90;;
74650;SDS011;63169;46.042;14.592;2023-05-06T00:58:28;9.13;;;6.55;;
74650;SDS011;63169;46.042;14.592;2023-05-06T01:00:54;6.00;;;3.20;;
74650;SDS011;63169;46.042;14.592;2023-05-06T01:03:19;5.78;;;3.33;;
74650;SDS011;63169;46.042;14.592;2023-05-06T01:08:33;8.85;;;6.38;;
74650;SDS011;63169;46.042;14.592;2023-05-06T01:11:14;7.47;;;3.22;;
74650;SDS011;63169;46.042;14.592;2023-05-06T01:13:51;6.43;;;3.60;;
74650;SDS011;63169;46.042;14.592;2023-05-06T01:16:22;7.35;;;5.15;;
74650;SDS011;63169;46.042;14.592;2023-05-06T01:18:50;5.68;;;3.35;;
74650;SDS011;63169;46.042;14.592;2023-05-06T01:21:17;6.85;;;6.15;;
74650;SDS011;63169;46.042;14.592;2023-05-06T01:26:19;5.15;;;2.67;;
74650;SDS011;63169;46.042;14.592;2023-05-06T01:28:44;8.95;;;3.20;;
74650;SDS011;63169;46.042;14.592;2023-05-06T01:31:15;5.68;;;3.40;;
74650;SDS011;63169;46.042;14.592;2023-05-06T01:39:00;7.82;;;6.10;;
74650;SDS011;63169;46.042;14.592;2023-05-06T01:41:32;5.82;;;3.47;;
74650;SDS011;63169;46.042;14.592;2023-05-06T01:43:58;6.63;;;3.03;;
74650;SDS011;63169;46.042;14.592;2023-05-06T01:46:24;6.55;;;3.33;;
74650;SDS011;63169;46.042;14.592;2023-05-06T01:48:51;7.53;;;5.47;;
74650;SDS011;63169;46.042;14.592;2023-05-06T01:51:19;7.10;;;3.78;;
74650;SDS011;63169;46.042;14.592;2023-05-06T01:53:45;8.75;;;5.32;;
74650;SDS011;63169;46.042;14.592;2023-05-06T01:56:10;6.10;;;4.90;;
74650;SDS011;63169;46.042;14.592;2023-05-06T01:58:36;8.05;;;5.55;;
74650;SDS011;63169;46.042;14.592;2023-05-06T02:01:02;6.97;;;5.13;;
74650;SDS011;63169;46.042;14.592;2023-05-06T02:03:27;8.13;;;3.45;;
74650;SDS011;63169;46.042;14.592;2023-05-06T02:05:53;8.60;;;5.70;;
74650;SDS011;63169;46.042;14.592;2023-05-06T02:08:18;8.30;;;5.45;;
74650;SDS011;63169;46.042;14.592;2023-05-06T02:10:44;6.10;;;5.50;;
74650;SDS011;63169;46.042;14.592;2023-05-06T02:13:09;4.65;;;2.85;;
74650;SDS011;63169;46.042;14.592;2023-05-06T02:15:35;6.88;;;3.83;;
74650;SDS011;63169;46.042;14.592;2023-05-06T02:18:00;5.88;;;4.70;;
74650;SDS011;63169;46.042;14.592;2023-05-06T02:20:26;6.38;;;5.72;;
74650;SDS011;63169;46.042;14.592;2023-05-06T02:22:51;5.63;;;2.65;;
74650;SDS011;63169;46.042;14.592;2023-05-06T02:25:16;6.55;;;3.25;;
74650;SDS011;63169;46.042;14.592;2023-05-06T02:27:42;5.78;;;4.47;;
74650;SDS011;63169;46.042;14.592;2023-05-06T02:30:09;8.07;;;6.53;;
74650;SDS011;63169;46.042;14.592;2023-05-06T02:32:35;8.10;;;5.50;;
74650;SDS011;63169;46.042;14.592;2023-05-06T02:35:00;7.25;;;6.00;;
74650;SDS011;63169;46.042;14.592;2023-05-06T02:37:26;7.10;;;5.10;;
74650;SDS011;63169;46.042;14.592;2023-05-06T02:39:51;6.40;;;3.75;;
74650;SDS011;63169;46.042;14.592;2023-05-06T02:42:16;6.93;;;5.78;;
74650;SDS011;63169;46.042;14.592;2023-05-06T02:44:42;7.38;;;5.68;;
74650;SDS011;63169;46.042;14.592;2023-05-06T02:47:07;8.27;;;6.43;;
74650;SDS011;63169;46.042;14.592;2023-05-06T02:49:33;7.07;;;5.78;;
74650;SDS011;63169;46.042;14.592;2023-05-06T02:51:58;7.82;;;6.78;;
74650;SDS011;63169;46.042;14.592;2023-05-06T02:54:24;7.47;;;3.88;;
74650;SDS011;63169;46.042;14.592;2023-05-06T02:56:51;7.40;;;5.43;;
74650;SDS011;63169;46.042;14.592;2023-05-06T02:59:16;7.72;;;6.68;;
74650;SDS011;63169;46.042;14.592;2023-05-06T03:01:42;5.43;;;2.97;;
74650;SDS011;63169;46.042;14.592;2023-05-06T03:04:07;8.90;;;6.03;;
74650;SDS011;63169;46.042;14.592;2023-05-06T03:06:32;8.65;;;5.88;;
74650;SDS011;63169;46.042;14.592;2023-05-06T03:09:01;9.20;;;6.45;;
74650;SDS011;63169;46.042;14.592;2023-05-06T03:11:26;7.97;;;6.15;;
74650;SDS011;63169;46.042;14.592;2023-05-06T03:13:54;7.20;;;5.90;;
74650;SDS011;63169;46.042;14.592;2023-05-06T03:16:20;7.20;;;5.05;;
74650;SDS011;63169;46.042;14.592;2023-05-06T03:18:45;6.93;;;3.10;;
74650;SDS011;63169;46.042;14.592;2023-05-06T03:21:10;7.55;;;5.68;;
74650;SDS011;63169;46.042;14.592;2023-05-06T03:23:36;7.40;;;6.38;;
74650;SDS011;63169;46.042;14.592;2023-05-06T03:26:02;7.88;;;5.18;;
74650;SDS011;63169;46.042;14.592;2023-05-06T03:28:27;6.72;;;5.30;;
74650;SDS011;63169;46.042;14.592;2023-05-06T03:30:52;6.78;;;6.07;;
74650;SDS011;63169;46.042;14.592;2023-05-06T03:33:18;6.32;;;5.38;;
74650;SDS011;63169;46.042;14.592;2023-05-06T03:35:43;7.07;;;3.28;;
74650;SDS011;63169;46.042;14.592;2023-05-06T03:38:09;5.97;;;3.28;;
74650;SDS011;63169;46.042;14.592;2023-05-06T03:40:34;7.90;;;6.03;;
74650;SDS011;63169;46.042;14.592;2023-05-06T03:42:59;7.40;;;6.63;;
74650;SDS011;63169;46.042;14.592;2023-05-06T03:45:25;8.18;;;5.03;;
74650;SDS011;63169;46.042;14.592;2023-05-06T03:47:51;7.63;;;5.25;;
74650;SDS011;63169;46.042;14.592;2023-05-06T03:50:16;6.53;;;4.55;;
74650;SDS011;63169;46.042;14.592;2023-05-06T03:52:41;8.35;;;4.30;;
74650;SDS011;63169;46.042;14.592;2023-05-06T03:55:07;6.45;;;5.28;;
74650;SDS011;63169;46.042;14.592;2023-05-06T03:57:32;7.07;;;5.55;;
74650;SDS011;63169;46.042;14.592;2023-05-06T03:59:58;6.18;;;2.67;;
74650;SDS011;63169;46.042;14.592;2023-05-06T04:02:23;6.32;;;5.38;;
74650;SDS011;63169;46.042;14.592;2023-05-06T04:04:49;7.03;;;3.22;;
74650;SDS011;63169;46.042;14.592;2023-05-06T04:07:14;8.60;;;3.15;;
74650;SDS011;63169;46.042;14.592;2023-05-06T04:09:39;12.13;;;5.65;;
74650;SDS011;63169;46.042;14.592;2023-05-06T04:12:05;7.03;;;3.85;;
74650;SDS011;63169;46.042;14.592;2023-05-06T04:14:31;6.50;;;3.40;;
74650;SDS011;63169;46.042;14.592;2023-05-06T04:16:56;6.10;;;3.83;;
74650;SDS011;63169;46.042;14.592;2023-05-06T04:19:22;6.32;;;3.28;;
74650;SDS011;63169;46.042;14.592;2023-05-06T04:21:47;8.07;;;4.50;;
74650;SDS011;63169;46.042;14.592;2023-05-06T04:24:13;6.47;;;5.45;;
74650;SDS011;63169;46.042;14.592;2023-05-06T04:26:40;9.70;;;6.40;;
74650;SDS011;63169;46.042;14.592;2023-05-06T04:29:05;8.43;;;6.28;;
74650;SDS011;63169;46.042;14.592;2023-05-06T04:31:31;6.63;;;5.78;;
74650;SDS011;63169;46.042;14.592;2023-05-06T04:33:58;7.80;;;4.22;;
74650;SDS011;63169;46.042;14.592;2023-05-06T04:36:24;8.93;;;3.97;;
74650;SDS011;63169;46.042;14.592;2023-05-06T04:38:49;8.88;;;6.20;;
74650;SDS011;63169;46.042;14.592;2023-05-06T04:41:16;7.82;;;6.32;;
74650;SDS011;63169;46.042;14.592;2023-05-06T04:43:42;7.20;;;4.88;;
74650;SDS011;63169;46.042;14.592;2023-05-06T04:46:07;8.93;;;6.53;;
74650;SDS011;63169;46.042;14.592;2023-05-06T04:48:32;6.85;;;5.72;;
74650;SDS011;63169;46.042;14.592;2023-05-06T04:50:58;6.18;;;4.03;;
74650;SDS011;63169;46.042;14.592;2023-05-06T04:53:23;8.30;;;6.88;;
74650;SDS011;63169;46.042;14.592;2023-05-06T04:55:49;12.75;;;7.15;;
74650;SDS011;63169;46.042;14.592;2023-05-06T04:58:14;8.85;;;3.50;;
74650;SDS011;63169;46.042;14.592;2023-05-06T05:00:40;9.10;;;6.50;;
74650;SDS011;63169;46.042;14.592;2023-05-06T05:03:05;8.75;;;4.85;;
74650;SDS011;63169;46.042;14.592;2023-05-06T05:05:31;10.07;;;6.47;;
74650;SDS011;63169;46.042;14.592;2023-05-06T05:10:23;13.43;;;4.97;;
74650;SDS011;63169;46.042;14.592;2023-05-06T05:12:48;9.98;;;5.88;;
74650;SDS011;63169;46.042;14.592;2023-05-06T05:15:13;11.27;;;5.00;;
74650;SDS011;63169;46.042;14.592;2023-05-06T05:17:39;10.23;;;5.20;;
74650;SDS011;63169;46.042;14.592;2023-05-06T05:20:04;9.27;;;4.63;;
74650;SDS011;63169;46.042;14.592;2023-05-06T05:22:30;13.73;;;8.85;;
74650;SDS011;63169;46.042;14.592;2023-05-06T05:24:56;9.70;;;4.78;;
74650;SDS011;63169;46.042;14.592;2023-05-06T05:27:21;8.70;;;4.65;;
74650;SDS011;63169;46.042;14.592;2023-05-06T05:29:47;10.30;;;7.07;;
74650;SDS011;63169;46.042;14.592;2023-05-06T05:32:13;8.68;;;4.80;;
74650;SDS011;63169;46.042;14.592;2023-05-06T05:34:38;13.52;;;7.85;;
74650;SDS011;63169;46.042;14.592;2023-05-06T05:37:04;9.68;;;7.18;;
74650;SDS011;63169;46.042;14.592;2023-05-06T05:39:29;8.88;;;6.30;;
74650;SDS011;63169;46.042;14.592;2023-05-06T05:41:55;9.95;;;4.88;;
74650;SDS011;63169;46.042;14.592;2023-05-06T05:44:20;13.07;;;7.72;;
74650;SDS011;63169;46.042;14.592;2023-05-06T05:46:45;9.45;;;7.25;;
74650;SDS011;63169;46.042;14.592;2023-05-06T05:49:13;7.30;;;5.95;;
74650;SDS011;63169;46.042;14.592;2023-05-06T05:51:39;10.52;;;7.32;;
74650;SDS011;63169;46.042;14.592;2023-05-06T05:54:04;10.10;;;5.00;;
74650;SDS011;63169;46.042;14.592;2023-05-06T05:56:29;8.15;;;6.53;;
74650;SDS011;63169;46.042;14.592;2023-05-06T05:58:55;9.15;;;7.63;;
74650;SDS011;63169;46.042;14.592;2023-05-06T06:01:20;9.18;;;5.50;;
74650;SDS011;63169;46.042;14.592;2023-05-06T06:03:46;9.77;;;7.72;;
74650;SDS011;63169;46.042;14.592;2023-05-06T06:06:11;11.13;;;9.13;;
74650;SDS011;63169;46.042;14.592;2023-05-06T06:08:36;11.75;;;8.35;;
74650;SDS011;63169;46.042;14.592;2023-05-06T06:11:02;9.63;;;8.55;;
74650;SDS011;63169;46.042;14.592;2023-05-06T06:13:28;9.25;;;7.57;;
74650;SDS011;63169;46.042;14.592;2023-05-06T06:15:55;8.73;;;4.82;;
74650;SDS011;63169;46.042;14.592;2023-05-06T06:18:20;14.18;;;9.60;;
74650;SDS011;63169;46.042;14.592;2023-05-06T06:20:45;11.50;;;7.75;;
74650;SDS011;63169;46.042;14.592;2023-05-06T06:23:11;12.13;;;6.07;;
74650;SDS011;63169;46.042;14.592;2023-05-06T06:25:36;9.82;;;5.07;;
74650;SDS011;63169;46.042;14.592;2023-05-06T06:28:01;13.57;;;9.18;;
74650;SDS011;63169;46.042;14.592;2023-05-06T06:30:27;13.52;;;8.55;;
74650;SDS011;63169;46.042;14.592;2023-05-06T06:32:52;11.65;;;9.15;;
74650;SDS011;63169;46.042;14.592;2023-05-06T06:35:18;12.05;;;8.60;;
74650;SDS011;63169;46.042;14.592;2023-05-06T06:37:47;11.15;;;10.05;;
74650;SDS011;63169;46.042;14.592;2023-05-06T06:40:12;11.05;;;6.45;;
74650;SDS011;63169;46.042;14.592;2023-05-06T06:42:38;15.55;;;10.20;;
74650;SDS011;63169;46.042;14.592;2023-05-06T06:45:03;11.68;;;9.63;;
74650;SDS011;63169;46.042;14.592;2023-05-06T06:47:31;12.23;;;9.10;;
74650;SDS011;63169;46.042;14.592;2023-05-06T06:49:56;14.18;;;10.55;;
74650;SDS011;63169;46.042;14.592;2023-05-06T06:52:21;11.85;;;9.05;;
74650;SDS011;63169;46.042;14.592;2023-05-06T06:54:47;12.00;;;9.50;;
74650;SDS011;63169;46.042;14.592;2023-05-06T06:57:12;13.20;;;7.25;;
74650;SDS011;63169;46.042;14.592;2023-05-06T06:59:37;9.40;;;6.03;;
74650;SDS011;63169;46.042;14.592;2023-05-06T07:02:03;12.45;;;9.15;;
74650;SDS011;63169;46.042;14.592;2023-05-06T07:04:28;14.43;;;9.60;;
74650;SDS011;63169;46.042;14.592;2023-05-06T07:06:56;13.93;;;9.15;;
74650;SDS011;63169;46.042;14.592;2023-05-06T07:09:21;11.85;;;9.77;;
74650;SDS011;63169;46.042;14.592;2023-05-06T07:11:47;15.40;;;9.10;;
74650;SDS011;63169;46.042;14.592;2023-05-06T07:14:13;11.75;;;9.65;;
74650;SDS011;63169;46.042;14.592;2023-05-06T07:16:38;12.70;;;9.05;;
74650;SDS011;63169;46.042;14.592;2023-05-06T07:19:03;10.07;;;8.60;;
74650;SDS011;63169;46.042;14.592;2023-05-06T07:21:29;10.43;;;8.32;;
74650;SDS011;63169;46.042;14.592;2023-05-06T07:23:56;12.93;;;8.75;;
74650;SDS011;63169;46.042;14.592;2023-05-06T07:26:25;9.73;;;5.55;;
74650;SDS011;63169;46.042;14.592;2023-05-06T07:28:50;11.40;;;8.45;;
74650;SDS011;63169;46.042;14.592;2023-05-06T07:31:16;10.48;;;9.20;;
74650;SDS011;63169;46.042;14.592;2023-05-06T07:33:45;10.52;;;7.60;;
74650;SDS011;63169;46.042;14.592;2023-05-06T07:36:13;18.98;;;9.70;;
74650;SDS011;63169;46.042;14.592;2023-05-06T07:38:38;16.52;;;10.75;;
74650;SDS011;63169;46.042;14.592;2023-05-06T07:41:05;13.93;;;10.85;;
74650;SDS011;63169;46.042;14.592;2023-05-06T07:43:30;19.42;;;11.70;;
74650;SDS011;63169;46.042;14.592;2023-05-06T07:45:55;19.40;;;12.25;;
74650;SDS011;63169;46.042;14.592;2023-05-06T07:48:26;12.95;;;9.85;;
74650;SDS011;63169;46.042;14.592;2023-05-06T07:50:52;17.02;;;12.73;;
74650;SDS011;63169;46.042;14.592;2023-05-06T07:53:17;11.13;;;6.93;;
74650;SDS011;63169;46.042;14.592;2023-05-06T07:55:43;9.93;;;6.68;;
74650;SDS011;63169;46.042;14.592;2023-05-06T07:58:08;12.32;;;10.38;;
74650;SDS011;63169;46.042;14.592;2023-05-06T08:00:34;10.32;;;7.53;;
74650;SDS011;63169;46.042;14.592;2023-05-06T08:02:59;10.85;;;9.70;;
74650;SDS011;63169;46.042;14.592;2023-05-06T08:05:25;11.48;;;9.18;;
74650;SDS011;63169;46.042;14.592;2023-05-06T08:07:50;12.50;;;9.48;;
74650;SDS011;63169;46.042;14.592;2023-05-06T08:10:15;13.75;;;11.10;;
74650;SDS011;63169;46.042;14.592;2023-05-06T08:12:41;13.35;;;10.40;;
74650;SDS011;63169;46.042;14.592;2023-05-06T08:15:07;12.15;;;10.73;;
74650;SDS011;63169;46.042;14.592;2023-05-06T08:17:32;11.88;;;8.85;;
74650;SDS011;63169;46.042;14.592;2023-05-06T08:19:58;14.40;;;10.50;;
74650;SDS011;63169;46.042;14.592;2023-05-06T08:22:23;13.82;;;10.05;;
74650;SDS011;63169;46.042;14.592;2023-05-06T08:24:48;11.95;;;9.55;;
74650;SDS011;63169;46.042;14.592;2023-05-06T08:27:14;11.75;;;10.35;;
74650;SDS011;63169;46.042;14.592;2023-05-06T08:29:39;13.93;;;8.90;;
74650;SDS011;63169;46.042;14.592;2023-05-06T08:32:05;12.48;;;9.55;;
74650;SDS011;63169;46.042;14.592;2023-05-06T08:34:30;12.60;;;10.05;;
74650;SDS011;63169;46.042;14.592;2023-05-06T08:36:55;11.55;;;9.43;;
74650;SDS011;63169;46.042;14.592;2023-05-06T08:39:21;13.52;;;10.32;;
74650;SDS011;63169;46.042;14.592;2023-05-06T08:41:47;13.60;;;9.27;;
74650;SDS011;63169;46.042;14.592;2023-05-06T08:44:16;11.38;;;10.27;;
74650;SDS011;63169;46.042;14.592;2023-05-06T08:46:43;9.80;;;8.80;;
74650;SDS011;63169;46.042;14.592;2023-05-06T08:49:11;9.60;;;7.40;;
74650;SDS011;63169;46.042;14.592;2023-05-06T08:51:36;12.77;;;9.15;;
74650;SDS011;63169;46.042;14.592;2023-05-06T08:54:02;12.30;;;8.50;;
74650;SDS011;63169;46.042;14.592;2023-05-06T08:56:29;13.23;;;9.05;;
74650;SDS011;63169;46.042;14.592;2023-05-06T08:58:55;21.95;;;9.25;;
74650;SDS011;63169;46.042;14.592;2023-05-06T09:01:22;18.55;;;9.35;;
74650;SDS011;63169;46.042;14.592;2023-05-06T09:03:49;11.63;;;9.73;;
74650;SDS011;63169;46.042;14.592;2023-05-06T09:06:15;9.75;;;6.07;;
74650;SDS011;63169;46.042;14.592;2023-05-06T09:08:40;14.65;;;11.90;;
74650;SDS011;63169;46.042;14.592;2023-05-06T09:14:11;9.90;;;9.00;;
74650;SDS011;63169;46.042;14.592;2023-05-06T09:16:41;12.38;;;10.13;;
74650;SDS011;63169;46.042;14.592;2023-05-06T09:19:08;13.52;;;11.65;;
74650;SDS011;63169;46.042;14.592;2023-05-06T09:21:38;13.93;;;11.15;;
74650;SDS011;63169;46.042;14.592;2023-05-06T09:24:05;13.20;;;10.77;;
74650;SDS011;63169;46.042;14.592;2023-05-06T09:26:31;12.10;;;10.15;;
74650;SDS011;63169;46.042;14.592;2023-05-06T09:28:58;12.88;;;11.15;;
74650;SDS011;63169;46.042;14.592;2023-05-06T09:31:24;9.50;;;8.13;;
74650;SDS011;63169;46.042;14.592;2023-05-06T09:33:50;12.13;;;8.23;;
74650;SDS011;63169;46.042;14.592;2023-05-06T09:36:16;10.45;;;9.23;;
74650;SDS011;63169;46.042;14.592;2023-05-06T09:38:41;9.65;;;8.73;;
74650;SDS011;63169;46.042;14.592;2023-05-06T09:43:33;9.82;;;8.93;;
74650;SDS011;63169;46.042;14.592;2023-05-06T09:46:01;11.60;;;8.43;;
74650;SDS011;63169;46.042;14.592;2023-05-06T09:50:53;9.20;;;8.32;;
74650;SDS011;63169;46.042;14.592;2023-05-06T09:53:19;5.80;;;4.32;;
74650;SDS011;63169;46.042;14.592;2023-05-06T09:55:46;8.07;;;7.35;;
74650;SDS011;63169;46.042;14.592;2023-05-06T09:58:12;11.48;;;7.28;;
74650;SDS011;63169;46.042;14.592;2023-05-06T10:03:03;7.00;;;5.30;;
74650;SDS011;63169;46.042;14.592;2023-05-06T10:07:54;11.97;;;7.27;;
74650;SDS011;63169;46.042;14.592;2023-05-06T10:10:21;9.07;;;7.38;;
74650;SDS011;63169;46.042;14.592;2023-05-06T10:12:46;7.68;;;6.93;;
74650;SDS011;63169;46.042;14.592;2023-05-06T10:15:12;7.97;;;7.10;;
74650;SDS011;63169;46.042;14.592;2023-05-06T10:17:38;7.25;;;6.32;;
74650;SDS011;63169;46.042;14.592;2023-05-06T10:20:04;8.38;;;6.53;;
74650;SDS011;63169;46.042;14.592;2023-05-06T10:25:17;8.85;;;7.13;;
74650;SDS011;63169;46.042;14.592;2023-05-06T10:27:47;7.60;;;5.53;;
74650;SDS011;63169;46.042;14.592;2023-05-06T10:32:40;6.82;;;4.28;;
74650;SDS011;63169;46.042;14.592;2023-05-06T10:35:18;7.57;;;6.88;;
74650;SDS011;63169;46.042;14.592;2023-05-06T10:37:47;7.53;;;6.82;;
74650;SDS011;63169;46.042;14.592;2023-05-06T10:40:13;7.05;;;6.28;;
74650;SDS011;63169;46.042;14.592;2023-05-06T10:45:05;8.77;;;7.88;;
74650;SDS011;63169;46.042;14.592;2023-05-06T10:50:21;8.02;;;7.22;;
74650;SDS011;63169;46.042;14.592;2023-05-06T10:52:54;7.93;;;7.18;;
74650;SDS011;63169;46.042;14.592;2023-05-06T10:55:31;8.77;;;4.25;;
74650;SDS011;63169;46.042;14.592;2023-05-06T10:58:05;8.27;;;7.47;;
74650;SDS011;63169;46.042;14.592;2023-05-06T11:00:37;7.93;;;7.18;;
74650;SDS011;63169;46.042;14.592;2023-05-06T11:05:53;7.20;;;6.53;;
74650;SDS011;63169;46.042;14.592;2023-05-06T11:08:24;4.72;;;3.78;;
74650;SDS011;63169;46.042;14.592;2023-05-06T11:10:50;5.13;;;3.30;;
74650;SDS011;63169;46.042;14.592;2023-05-06T11:13:17;6.38;;;5.88;;
74650;SDS011;63169;46.042;14.592;2023-05-06T11:15:53;8.93;;;8.05;;
74650;SDS011;63169;46.042;14.592;2023-05-06T11:20:48;4.60;;;3.78;;
74650;SDS011;63169;46.042;14.592;2023-05-06T11:26:05;6.78;;;6.18;;
74650;SDS011;63169;46.042;14.592;2023-05-06T11:30:56;7.67;;;7.07;;
74650;SDS011;63169;46.042;14.592;2023-05-06T11:35:47;8.07;;;7.40;;
74650;SDS011;63169;46.042;14.592;2023-05-06T11:40:39;6.33;;;4.27;;
74650;SDS011;63169;46.042;14.592;2023-05-06T11:43:12;7.43;;;5.47;;
74650;SDS011;63169;46.042;14.592;2023-05-06T11:45:41;7.97;;;7.28;;
74650;SDS011;63169;46.042;14.592;2023-05-06T11:48:10;6.93;;;6.28;;
74650;SDS011;63169;46.042;14.592;2023-05-06T11:50:37;8.68;;;7.78;;
74650;SDS011;63169;46.042;14.592;2023-05-06T11:55:27;6.73;;;6.13;;
74650;SDS011;63169;46.042;14.592;2023-05-06T11:57:53;7.05;;;6.47;;
74650;SDS011;63169;46.042;14.592;2023-05-06T12:00:19;7.38;;;6.68;;
74650;SDS011;63169;46.042;14.592;2023-05-06T12:02:44;7.75;;;7.15;;
74650;SDS011;63169;46.042;14.592;2023-05-06T12:05:10;6.60;;;5.97;;
74650;SDS011;63169;46.042;14.592;2023-05-06T12:07:36;6.30;;;5.75;;
74650;SDS011;63169;46.042;14.592;2023-05-06T12:12:28;6.65;;;6.05;;
74650;SDS011;63169;46.042;14.592;2023-05-06T12:14:56;6.10;;;5.63;;
74650;SDS011;63169;46.042;14.592;2023-05-06T12:19:47;5.93;;;5.35;;
74650;SDS011;63169;46.042;14.592;2023-05-06T12:22:22;6.53;;;5.70;;
74650;SDS011;63169;46.042;14.592;2023-05-06T12:24:51;6.68;;;6.07;;
74650;SDS011;63169;46.042;14.592;2023-05-06T12:27:32;6.65;;;6.03;;
74650;SDS011;63169;46.042;14.592;2023-05-06T12:29:59;6.50;;;5.50;;
74650;SDS011;63169;46.042;14.592;2023-05-06T12:32:25;5.78;;;5.13;;
74650;SDS011;63169;46.042;14.592;2023-05-06T12:34:51;5.22;;;4.72;;
74650;SDS011;63169;46.042;14.592;2023-05-06T12:37:22;4.88;;;4.45;;
74650;SDS011;63169;46.042;14.592;2023-05-06T12:39:54;3.50;;;3.20;;
74650;SDS011;63169;46.042;14.592;2023-05-06T12:42:20;4.05;;;3.50;;
74650;SDS011;63169;46.042;14.592;2023-05-06T12:44:46;3.30;;;3.00;;
74650;SDS011;63169;46.042;14.592;2023-05-06T12:47:21;3.20;;;2.90;;
74650;SDS011;63169;46.042;14.592;2023-05-06T12:49:51;1.88;;;1.35;;
74650;SDS011;63169;46.042;14.592;2023-05-06T12:52:21;4.50;;;4.10;;
74650;SDS011;63169;46.042;14.592;2023-05-06T12:54:48;5.13;;;3.47;;
74650;SDS011;63169;46.042;14.592;2023-05-06T12:57:15;4.20;;;3.80;;
74650;SDS011;63169;46.042;14.592;2023-05-06T12:59:41;3.38;;;3.08;;
74650;SDS011;63169;46.042;14.592;2023-05-06T13:02:07;3.63;;;3.33;;
74650;SDS011;63169;46.042;14.592;2023-05-06T13:04:36;5.03;;;4.63;;
74650;SDS011;63169;46.042;14.592;2023-05-06T13:07:01;4.57;;;4.18;;
74650;SDS011;63169;46.042;14.592;2023-05-06T13:09:26;2.83;;;1.33;;
74650;SDS011;63169;46.042;14.592;2023-05-06T13:11:52;4.63;;;4.10;;
74650;SDS011;63169;46.042;14.592;2023-05-06T13:14:17;4.90;;;2.03;;
74650;SDS011;63169;46.042;14.592;2023-05-06T13:16:43;4.78;;;4.38;;
74650;SDS011;63169;46.042;14.592;2023-05-06T13:19:09;4.47;;;4.05;;
74650;SDS011;63169;46.042;14.592;2023-05-06T13:21:35;3.65;;;3.35;;
74650;SDS011;63169;46.042;14.592;2023-05-06T13:24:02;4.53;;;4.13;;
74650;SDS011;63169;46.042;14.592;2023-05-06T13:26:27;4.55;;;4.25;;
74650;SDS011;63169;46.042;14.592;2023-05-06T13:28:53;3.63;;;3.33;;
74650;SDS011;63169;46.042;14.592;2023-05-06T13:31:18;3.80;;;3.50;;
74650;SDS011;63169;46.042;14.592;2023-05-06T13:33:43;3.90;;;3.60;;
74650;SDS011;63169;46.042;14.592;2023-05-06T13:36:09;3.78;;;3.47;;
74650;SDS011;63169;46.042;14.592;2023-05-06T13:38:34;3.15;;;2.95;;
74650;SDS011;63169;46.042;14.592;2023-05-06T13:41:00;3.15;;;1.00;;
74650;SDS011;63169;46.042;14.592;2023-05-06T13:43:25;4.35;;;3.33;;
74650;SDS011;63169;46.042;14.592;2023-05-06T13:45:51;2.30;;;2.10;;
74650;SDS011;63169;46.042;14.592;2023-05-06T13:48:16;5.40;;;3.38;;
74650;SDS011;63169;46.042;14.592;2023-05-06T13:50:45;3.55;;;3.25;;
74650;SDS011;63169;46.042;14.592;2023-05-06T13:53:12;4.03;;;3.72;;
74650;SDS011;63169;46.042;14.592;2023-05-06T13:55:38;3.78;;;3.47;;
74650;SDS011;63169;46.042;14.592;2023-05-06T13:58:04;4.28;;;3.78;;
74650;SDS011;63169;46.042;14.592;2023-05-06T14:00:30;3.22;;;2.95;;
74650;SDS011;63169;46.042;14.592;2023-05-06T14:02:56;9.90;;;9.20;;
74650;SDS011;63169;46.042;14.592;2023-05-06T14:05:21;5.80;;;5.40;;
74650;SDS011;63169;46.042;14.592;2023-05-06T14:07:47;4.88;;;4.57;;
74650;SDS011;63169;46.042;14.592;2023-05-06T14:10:12;3.60;;;3.30;;
74650;SDS011;63169;46.042;14.592;2023-05-06T14:12:38;3.22;;;2.92;;
74650;SDS011;63169;46.042;14.592;2023-05-06T14:15:05;3.72;;;2.75;;
74650;SDS011;63169;46.042;14.592;2023-05-06T14:17:31;4.03;;;3.53;;
74650;SDS011;63169;46.042;14.592;2023-05-06T14:19:56;3.45;;;3.25;;
74650;SDS011;63169;46.042;14.592;2023-05-06T14:22:22;3.90;;;3.15;;
74650;SDS011;63169;46.042;14.592;2023-05-06T14:24:47;3.42;;;3.17;;
74650;SDS011;63169;46.042;14.592;2023-05-06T14:27:12;3.95;;;2.53;;
74650;SDS011;63169;46.042;14.592;2023-05-06T14:29:38;3.80;;;2.67;;
74650;SDS011;63169;46.042;14.592;2023-05-06T14:32:07;3.28;;;3.08;;
74650;SDS011;63169;46.042;14.592;2023-05-06T14:34:33;3.90;;;3.60;;
74650;SDS011;63169;46.042;14.592;2023-05-06T14:36:58;3.45;;;3.15;;
74650;SDS011;63169;46.042;14.592;2023-05-06T14:39:24;3.30;;;3.10;;
74650;SDS011;63169;46.042;14.592;2023-05-06T14:41:49;2.20;;;0.80;;
74650;SDS011;63169;46.042;14.592;2023-05-06T14:44:15;3.10;;;2.85;;
74650;SDS011;63169;46.042;14.592;2023-05-06T14:46:40;4.22;;;3.92;;
74650;SDS011;63169;46.042;14.592;2023-05-06T14:49:05;5.00;;;3.30;;
74650;SDS011;63169;46.042;14.592;2023-05-06T14:51:31;4.60;;;4.38;;
74650;SDS011;63169;46.042;14.592;2023-05-06T14:53:58;3.78;;;3.47;;
74650;SDS011;63169;46.042;14.592;2023-05-06T14:56:23;4.03;;;0.80;;
74650;SDS011;63169;46.042;14.592;2023-05-06T14:58:49;4.18;;;3.78;;
74650;SDS011;63169;46.042;14.592;2023-05-06T15:01:14;3.55;;;3.00;;
74650;SDS011;63169;46.042;14.592;2023-05-06T15:03:39;4.28;;;3.75;;
74650;SDS011;63169;46.042;14.592;2023-05-06T15:06:05;2.60;;;1.30;;
74650;SDS011;63169;46.042;14.592;2023-05-06T15:08:31;4.43;;;4.07;;
74650;SDS011;63169;46.042;14.592;2023-05-06T15:10:56;4.78;;;4.25;;
74650;SDS011;63169;46.042;14.592;2023-05-06T15:13:21;5.28;;;4.78;;
74650;SDS011;63169;46.042;14.592;2023-05-06T15:15:47;4.85;;;4.45;;
74650;SDS011;63169;46.042;14.592;2023-05-06T15:18:12;5.82;;;5.28;;
74650;SDS011;63169;46.042;14.592;2023-05-06T15:20:37;6.88;;;3.70;;
74650;SDS011;63169;46.042;14.592;2023-05-06T15:23:03;4.20;;;3.90;;